Time;durP1;ratioP1;P1;durP2;ratioP2;P2;SDS_P1;SDS_P2;PMS_P1;PMS_P2;Temp;Humidity;BMP_temperature;BMP_pressure;BME280_temperature;BME280_humidity;BME280_pressure;Samples;Min_cycle;Max_cycle;Signal;HPM_P1;HPM_P2
2023/07/21 00:02:38;;;;;;;18.73;13.00;;;;;;;17.11;100.00;100218.94;8370792;28;20041;-63
2023/07/21 00:06:38;;;;;;;17.25;13.85;;;;;;;16.98;100.00;100216.06;8364014;28;20053;-63
2023/07/21 00:10:39;;;;;;;21.33;13.48;;;;;;;16.85;100.00;100212.28;8367705;28;20522;-63
2023/07/21 00:14:39;;;;;;;21.55;15.20;;;;;;;16.84;100.00;100205.13;8350665;28;20090;-63
2023/07/21 00:18:41;;;;;;;20.40;14.45;;;;;;;16.90;100.00;100204.38;8349227;28;20556;-63
2023/07/21 00:22:42;;;;;;;23.48;14.63;;;;;;;16.95;100.00;100208.22;8350421;28;20067;-63
2023/07/21 00:26:42;;;;;;;19.75;14.77;;;;;;;16.96;100.00;100200.91;8349263;28;20041;-63
2023/07/21 00:30:46;;;;;;;30.30;17.25;;;;;;;17.01;100.00;100195.69;8368123;28;20044;-63
2023/07/21 00:34:47;;;;;;;21.27;15.88;;;;;;;17.01;100.00;100195.69;8368027;28;20091;-63
2023/07/21 00:38:48;;;;;;;21.58;16.02;;;;;;;17.01;100.00;100190.22;8365843;28;20044;-63
2023/07/21 00:42:48;;;;;;;24.65;16.75;;;;;;;17.01;100.00;100190.22;8363434;28;20089;-63
2023/07/21 00:46:49;;;;;;;24.23;16.42;;;;;;;17.06;100.00;100182.31;8363248;28;20117;-63
2023/07/21 00:50:52;;;;;;;24.60;17.77;;;;;;;17.15;100.00;100181.19;8366922;28;20512;-63
2023/07/21 00:54:52;;;;;;;22.10;17.70;;;;;;;17.31;100.00;100175.50;8365817;28;20043;-63
2023/07/21 00:58:54;;;;;;;23.20;17.08;;;;;;;17.41;100.00;100170.56;8361986;28;20060;-63
2023/07/21 01:02:56;;;;;;;24.15;17.02;;;;;;;17.35;100.00;100165.88;8364919;28;20037;-63
2023/07/21 01:06:58;;;;;;;25.63;18.30;;;;;;;17.27;100.00;100157.81;8366272;28;20045;-63
2023/07/21 01:11:01;;;;;;;27.77;18.58;;;;;;;17.18;100.00;100156.22;8359858;28;20038;-63
2023/07/21 01:15:01;;;;;;;22.17;16.88;;;;;;;17.15;100.00;100151.13;8352568;28;20044;-63
2023/07/21 01:19:08;;;;;;;25.55;16.90;;;;;;;17.14;100.00;100146.72;8361369;28;20045;-63
2023/07/21 01:23:20;;;;;;;24.60;17.50;;;;;;;17.18;100.00;100142.56;8371500;28;20119;-63
2023/07/21 01:27:23;;;;;;;24.63;18.08;;;;;;;17.15;100.00;100138.34;8367844;28;20037;-63
2023/07/21 01:31:23;;;;;;;25.40;16.95;;;;;;;17.13;100.00;100139.53;8366355;28;20303;-63
2023/07/21 01:35:28;;;;;;;19.33;14.77;;;;;;;17.11;100.00;100134.28;8373844;28;20113;-63
2023/07/21 01:39:31;;;;;;;23.73;17.25;;;;;;;16.99;100.00;100126.78;8359620;28;20037;-63
2023/07/21 01:43:33;;;;;;;25.73;18.63;;;;;;;17.20;100.00;100126.84;8364037;28;20051;-63
2023/07/21 01:47:34;;;;;;;24.85;17.83;;;;;;;17.00;100.00;100133.91;8369159;28;20527;-63
2023/07/21 01:51:35;;;;;;;27.17;17.58;;;;;;;16.93;100.00;100124.81;8354107;28;20094;-63
2023/07/21 01:55:41;;;;;;;28.48;19.05;;;;;;;17.00;100.00;100120.28;8355799;28;20329;-63
2023/07/21 01:59:45;;;;;;;32.55;18.63;;;;;;;16.84;100.00;100124.03;8356707;28;20045;-63
2023/07/21 02:03:47;;;;;;;33.25;19.70;;;;;;;16.94;100.00;100113.69;8344555;28;20158;-63
2023/07/21 02:07:48;;;;;;;31.58;20.02;;;;;;;16.96;100.00;100116.25;8388825;28;20436;-63
2023/07/21 02:11:49;;;;;;;33.97;18.85;;;;;;;16.81;100.00;100118.13;8356748;28;20037;-63
2023/07/21 02:16:09;;;;;;;30.13;17.35;;;;;;;16.68;100.00;100112.50;8355240;28;20091;-63
2023/07/21 02:20:10;;;;;;;30.35;19.25;;;;;;;16.75;100.00;100113.44;8356133;28;20041;-64
2023/07/21 02:24:11;;;;;;;30.88;18.65;;;;;;;16.83;100.00;100132.44;8356411;28;20064;-64
2023/07/21 02:28:12;;;;;;;28.10;19.65;;;;;;;16.83;100.00;100154.28;8355275;28;20041;-64
2023/07/21 02:32:12;;;;;;;29.73;18.92;;;;;;;16.93;100.00;100141.19;8354314;28;20519;-63
2023/07/21 02:36:13;;;;;;;25.27;18.83;;;;;;;17.04;100.00;100129.75;8353491;28;20033;-63
2023/07/21 02:40:14;;;;;;;29.60;18.08;;;;;;;17.11;100.00;100120.59;8366433;28;20040;-63
2023/07/21 02:44:15;;;;;;;30.83;18.75;;;;;;;17.01;100.00;100108.28;8344071;28;20044;-63
2023/07/21 02:48:17;;;;;;;27.98;18.35;;;;;;;16.87;100.00;100092.81;8348717;28;20586;-63
2023/07/21 02:52:18;;;;;;;34.13;19.92;;;;;;;16.62;100.00;100080.50;8350941;28;20033;-66
2023/07/21 02:56:24;;;;;;;30.50;20.25;;;;;;;16.63;100.00;100066.69;8355414;28;20423;-60
2023/07/21 03:00:38;;;;;;;33.60;21.65;;;;;;;16.80;100.00;100059.94;8352698;28;20037;-59
2023/07/21 03:04:50;;;;;;;30.25;19.88;;;;;;;16.89;100.00;100055.22;8351063;28;20503;-59
2023/07/21 03:08:52;;;;;;;32.05;21.98;;;;;;;16.83;100.00;100067.75;8355341;28;20076;-59
2023/07/21 03:12:54;;;;;;;33.90;20.98;;;;;;;16.78;100.00;100072.09;8361634;28;20574;-60
2023/07/21 03:17:00;;;;;;;31.35;20.35;;;;;;;16.94;100.00;100096.44;8358266;28;20051;-60
2023/07/21 03:21:01;;;;;;;33.22;21.05;;;;;;;17.03;100.00;100104.34;8359042;28;20041;-60
2023/07/21 03:25:05;;;;;;;30.30;20.08;;;;;;;16.98;100.00;100114.13;8361646;28;20522;-60
2023/07/21 03:29:06;;;;;;;34.53;20.90;;;;;;;16.93;100.00;100127.53;8359929;28;20376;-60
2023/07/21 03:33:07;;;;;;;38.50;19.70;;;;;;;16.83;100.00;100126.97;8341175;28;20125;-59
2023/07/21 03:37:09;;;;;;;34.38;21.08;;;;;;;16.70;100.00;100121.34;8344495;28;20154;-60
2023/07/21 03:41:10;;;;;;;35.50;22.83;;;;;;;16.74;100.00;100117.22;8343789;28;20033;-59
2023/07/21 03:45:12;;;;;;;35.00;22.65;;;;;;;16.75;100.00;100121.63;8339974;28;20495;-60
2023/07/21 03:49:12;;;;;;;38.85;22.45;;;;;;;16.80;100.00;100127.38;8353293;28;20455;-60
2023/07/21 03:53:16;;;;;;;31.95;21.88;;;;;;;16.69;100.00;100108.72;8386768;27;20065;-60
2023/07/21 03:57:17;;;;;;;37.20;22.73;;;;;;;16.73;100.00;100104.56;8349647;28;20048;-60
2023/07/21 04:01:17;;;;;;;38.70;23.05;;;;;;;16.82;100.00;100095.25;8353993;28;20423;-60
2023/07/21 04:05:18;;;;;;;43.83;24.27;;;;;;;16.84;100.00;100085.00;8360850;28;20064;-60
2023/07/21 04:09:18;;;;;;;39.20;23.77;;;;;;;16.85;100.00;100092.13;8354707;28;20159;-60
2023/07/21 04:13:19;;;;;;;41.20;23.98;;;;;;;16.69;100.00;100087.75;8366220;28;20068;-59
2023/07/21 04:17:19;;;;;;;43.88;25.35;;;;;;;16.74;100.00;100090.75;8356804;28;20041;-60
2023/07/21 04:21:20;;;;;;;42.15;24.20;;;;;;;16.80;100.00;100089.16;8359816;28;20038;-60
2023/07/21 04:25:21;;;;;;;38.42;24.20;;;;;;;16.77;100.00;100078.63;8358822;28;20048;-60
2023/07/21 04:29:23;;;;;;;40.45;23.70;;;;;;;16.87;100.00;100084.59;8358159;28;20101;-60
2023/07/21 04:33:25;;;;;;;37.13;23.55;;;;;;;17.04;100.00;100102.44;8361606;28;20553;-60
2023/07/21 04:37:27;;;;;;;33.72;21.63;;;;;;;17.06;100.00;100100.38;8356715;28;20033;-59
2023/07/21 04:41:29;;;;;;;41.53;21.63;;;;;;;17.12;100.00;100099.63;8355883;28;20560;-60
2023/07/21 04:45:29;;;;;;;41.47;22.27;;;;;;;17.15;100.00;100111.00;8357140;28;20388;-61
2023/07/21 04:49:42;;;;;;;42.63;21.95;;;;;;;17.24;100.00;100118.06;8357267;28;20518;-60
2023/07/21 04:53:43;;;;;;;34.10;22.27;;;;;;;17.32;100.00;100114.31;8351547;28;20423;-59
2023/07/21 04:57:43;;;;;;;34.90;22.23;;;;;;;17.36;100.00;100119.22;8354289;28;20068;-61
2023/07/21 05:01:44;;;;;;;38.40;22.42;;;;;;;17.45;100.00;100117.25;8353470;28;20121;-61
2023/07/21 05:05:45;;;;;;;33.20;20.75;;;;;;;17.68;100.00;100106.97;8386693;28;20049;-61
2023/07/21 05:09:46;;;;;;;61.03;22.95;;;;;;;17.52;100.00;100112.69;8355171;28;20131;-60
2023/07/21 05:13:51;;;;;;;40.50;21.60;;;;;;;17.58;100.00;100107.31;8358364;28;20507;-60
2023/07/21 05:18:00;;;;;;;38.65;21.88;;;;;;;17.57;100.00;100094.66;8351476;28;20419;-60
2023/07/21 05:22:20;;;;;;;39.88;22.10;;;;;;;17.57;100.00;100110.25;8351130;28;20503;-60
2023/07/21 05:26:39;;;;;;;56.25;23.25;;;;;;;17.74;100.00;100114.38;8352781;28;20053;-60
2023/07/21 05:30:55;;;;;;;47.50;24.92;;;;;;;17.75;100.00;100113.31;8344416;28;20041;-60
2023/07/21 05:34:59;;;;;;;40.42;25.13;;;;;;;17.93;100.00;100121.91;8354037;28;20036;-60
2023/07/21 05:38:59;;;;;;;43.65;25.67;;;;;;;18.09;100.00;100118.91;8352647;28;20402;-60
2023/07/21 05:43:05;;;;;;;40.80;23.55;;;;;;;18.11;100.00;100119.53;8355036;28;20076;-60
2023/07/21 05:47:06;;;;;;;;;;;;;;;18.11;100.00;100118.72;8351880;28;20044;-60
2023/07/21 05:51:14;;;;;;;37.72;23.73;;;;;;;18.19;100.00;100116.66;8353906;28;20298;-60
2023/07/21 05:55:17;;;;;;;51.78;23.65;;;;;;;18.15;100.00;100120.84;8353364;28;20396;-60
2023/07/21 05:59:18;;;;;;;42.45;23.77;;;;;;;18.19;100.00;100115.81;8352628;28;20059;-61
2023/07/21 06:03:18;;;;;;;40.58;23.02;;;;;;;18.21;100.00;100120.03;8355408;28;20557;-60
2023/07/21 06:07:19;;;;;;;38.78;23.45;;;;;;;18.31;100.00;100126.03;8353959;28;20041;-58
2023/07/21 06:11:31;;;;;;;40.72;23.80;;;;;;;18.30;100.00;100123.47;8354994;28;20020;-57
2023/07/21 06:15:51;;;;;;;35.67;23.67;;;;;;;18.52;100.00;100117.78;8351423;28;20037;-58
2023/07/21 06:19:57;;;;;;;36.80;24.52;;;;;;;18.91;100.00;100112.47;8353126;28;20033;-58
2023/07/21 06:23:58;;;;;;;32.10;22.88;;;;;;;19.14;100.00;100113.00;8350827;28;20080;-58
2023/07/21 06:27:58;;;;;;;71.38;25.50;;;;;;;19.35;100.00;100117.53;8353465;28;20048;-58
2023/07/21 06:32:00;;;;;;;32.75;20.38;;;;;;;19.55;100.00;100114.84;8349115;28;20044;-58
2023/07/21 06:36:20;;;;;;;61.35;23.02;;;;;;;19.57;99.88;100112.75;8352581;28;20086;-58
2023/07/21 06:40:37;;;;;;;28.48;19.27;;;;;;;20.05;98.62;100117.00;8353124;28;20124;-58
2023/07/21 06:44:57;;;;;;;51.55;21.38;;;;;;;20.21;94.32;100111.09;8351361;28;20435;-57
2023/07/21 06:49:04;;;;;;;26.98;19.58;;;;;;;19.94;95.07;100102.00;8344839;28;20053;-58
2023/07/21 06:53:17;;;;;;;35.80;21.25;;;;;;;20.38;95.16;100107.72;8342069;28;20048;-58
2023/07/21 06:57:19;;;;;;;31.50;20.88;;;;;;;20.36;93.74;100103.47;8342228;28;20534;-58
2023/07/21 07:01:19;;;;;;;33.65;21.75;;;;;;;20.73;95.59;100094.53;8341221;28;20565;-58
2023/07/21 07:05:19;;;;;;;27.50;19.88;;;;;;;20.45;91.91;100096.72;8341928;28;20408;-58
2023/07/21 07:09:20;;;;;;;30.95;21.35;;;;;;;20.75;95.34;100092.41;8353600;28;20045;-58
2023/07/21 07:13:21;;;;;;;37.90;20.65;;;;;;;20.46;93.18;100087.44;8363990;28;20454;-58
2023/07/21 07:17:21;;;;;;;34.75;21.42;;;;;;;20.49;93.73;100089.75;8361387;28;20086;-58
2023/07/21 07:21:23;;;;;;;31.05;20.33;;;;;;;20.36;91.56;100079.63;8374376;28;20142;-58
2023/07/21 07:25:25;;;;;;;28.70;20.08;;;;;;;20.50;92.60;100077.69;8374009;28;20040;-57
2023/07/21 07:29:26;;;;;;;31.52;20.70;;;;;;;20.75;90.44;100081.41;8374289;28;20037;-57
2023/07/21 07:33:27;;;;;;;28.40;20.25;;;;;;;21.06;89.83;100084.28;8357907;28;20039;-58
2023/07/21 07:37:28;;;;;;;28.45;19.58;;;;;;;20.92;88.18;100082.63;8357315;28;20124;-58
2023/07/21 07:41:28;;;;;;;26.58;18.50;;;;;;;21.44;88.96;100087.91;8357549;28;20037;-58
2023/07/21 07:45:29;;;;;;;28.10;18.70;;;;;;;21.45;85.20;100099.72;8356473;28;20040;-58
2023/07/21 07:49:29;;;;;;;27.10;17.33;;;;;;;21.35;85.89;100100.22;8356740;28;20120;-57
2023/07/21 07:53:32;;;;;;;83.68;22.90;;;;;;;21.17;86.18;100097.34;8360024;28;20040;-58
2023/07/21 07:57:33;;;;;;;26.92;18.17;;;;;;;21.31;85.23;100104.47;8357678;28;20037;-58
2023/07/21 08:01:34;;;;;;;24.60;17.23;;;;;;;21.19;86.58;100095.22;8353864;28;20102;-58
2023/07/21 08:05:36;;;;;;;24.13;18.45;;;;;;;21.06;85.60;100095.28;8357503;28;20045;-57
2023/07/21 08:09:37;;;;;;;23.58;17.45;;;;;;;21.22;84.83;100094.78;8356298;28;20047;-58
2023/07/21 08:13:39;;;;;;;22.80;17.85;;;;;;;21.50;84.55;100092.50;8358631;28;20503;-57
2023/07/21 08:17:40;;;;;;;26.38;17.70;;;;;;;21.59;85.27;100093.91;8358119;28;20040;-57
2023/07/21 08:21:40;;;;;;;18.65;14.32;;;;;;;22.04;83.28;100098.28;8359169;28;20044;-57
2023/07/21 08:25:41;;;;;;;26.73;15.30;;;;;;;21.97;80.16;100105.75;8354059;28;20056;-58
2023/07/21 08:29:41;;;;;;;18.63;13.55;;;;;;;21.64;80.08;100105.09;8354919;28;20043;-58
2023/07/21 08:33:42;;;;;;;21.00;13.60;;;;;;;22.01;79.94;100108.88;8350918;28;20048;-57
2023/07/21 08:37:42;;;;;;;19.70;14.52;;;;;;;21.75;81.66;100101.69;8353310;28;20340;-58
2023/07/21 08:41:46;;;;;;;24.17;13.80;;;;;;;21.89;81.37;100113.44;8353070;28;20458;-57
2023/07/21 08:45:49;;;;;;;22.92;14.90;;;;;;;21.93;81.26;100110.03;8353213;28;20045;-58
2023/07/21 08:49:50;;;;;;;19.45;14.30;;;;;;;22.22;80.19;100103.84;8352842;28;20494;-57
2023/07/21 08:53:50;;;;;;;17.30;12.82;;;;;;;22.13;80.27;100110.69;8355187;28;20113;-57
2023/07/21 08:57:58;;;;;;;21.30;14.57;;;;;;;22.12;78.35;100105.41;8352349;28;20047;-59
2023/07/21 09:01:59;;;;;;;17.75;12.95;;;;;;;22.05;79.05;100108.22;8352659;28;20123;-59
2023/07/21 09:06:01;;;;;;;33.28;12.43;;;;;;;22.59;75.11;100102.84;8352168;28;20490;-59
2023/07/21 09:10:01;;;;;;;12.00;9.45;;;;;;;22.55;74.02;100098.88;8357471;28;20048;-59
2023/07/21 09:14:02;;;;;;;12.32;9.48;;;;;;;22.63;71.95;100101.31;8355480;28;20568;-59
2023/07/21 09:18:03;;;;;;;12.75;10.30;;;;;;;23.46;70.62;100096.06;8349780;28;20049;-59
2023/07/21 09:22:04;;;;;;;13.05;8.60;;;;;;;23.39;70.65;100098.09;8353918;28;20117;-59
2023/07/21 09:26:04;;;;;;;10.63;7.57;;;;;;;23.33;69.12;100107.31;8353212;28;20391;-59
2023/07/21 09:30:05;;;;;;;10.43;7.45;;;;;;;22.94;67.99;100106.69;8348542;28;20041;-59
2023/07/21 09:34:09;;;;;;;10.15;7.60;;;;;;;22.87;71.27;100114.19;8349513;28;20060;-59
2023/07/21 09:38:12;;;;;;;13.23;7.70;;;;;;;23.11;70.44;100110.50;8347244;28;20041;-59
2023/07/21 09:42:13;;;;;;;12.27;7.27;;;;;;;23.66;68.36;100113.19;8349000;28;20038;-59
2023/07/21 09:46:14;;;;;;;12.30;9.68;;;;;;;23.63;68.76;100119.19;8352164;28;20033;-60
2023/07/21 09:50:14;;;;;;;14.02;10.40;;;;;;;23.20;70.32;100109.13;8351393;28;20557;-60
2023/07/21 09:54:18;;;;;;;10.00;8.77;;;;;;;23.45;72.38;100110.97;8350557;28;20064;-60
2023/07/21 09:58:25;;;;;;;21.87;8.63;;;;;;;24.19;69.85;100108.53;8347925;28;20056;-59
2023/07/21 10:02:26;;;;;;;17.45;8.30;;;;;;;25.16;64.68;100111.38;8347911;28;20041;-59
2023/07/21 10:06:32;;;;;;;10.00;6.82;;;;;;;25.17;61.03;100101.16;8352237;28;20123;-59
2023/07/21 10:10:33;;;;;;;8.63;6.75;;;;;;;25.51;61.06;100095.50;8351158;28;20040;-59
2023/07/21 10:14:34;;;;;;;10.30;6.70;;;;;;;25.28;59.78;100103.03;8348784;28;20041;-58
2023/07/21 10:18:35;;;;;;;10.75;7.40;;;;;;;24.29;62.78;100093.06;8353432;28;20116;-59
2023/07/21 10:22:36;;;;;;;9.05;6.00;;;;;;;24.10;63.15;100096.16;8358158;28;20199;-59
2023/07/21 10:26:45;;;;;;;11.55;7.22;;;;;;;24.15;62.85;100090.78;8357707;28;20056;-59
2023/07/21 10:30:46;;;;;;;10.60;8.18;;;;;;;23.76;63.61;100091.38;8351631;28;20600;-58
2023/07/21 10:34:48;;;;;;;11.88;8.38;;;;;;;23.37;66.26;100086.44;8358712;28;20439;-59
2023/07/21 10:38:49;;;;;;;16.42;8.93;;;;;;;23.04;68.28;100087.69;8358618;28;20043;-59
2023/07/21 10:42:49;;;;;;;11.23;7.75;;;;;;;22.83;67.46;100081.81;8357413;28;20044;-58
2023/07/21 10:46:51;;;;;;;11.75;9.15;;;;;;;22.92;69.01;100092.31;8356787;28;20110;-59
2023/07/21 10:50:58;;;;;;;10.63;7.63;;;;;;;23.23;67.80;100074.69;8356731;28;20048;-59
2023/07/21 10:54:59;;;;;;;17.88;9.75;;;;;;;23.31;68.04;100081.84;8357368;28;20041;-59
2023/07/21 10:58:59;;;;;;;17.60;8.52;;;;;;;22.99;68.80;100073.75;8356202;28;20045;-58
2023/07/21 11:03:00;;;;;;;13.50;9.77;;;;;;;22.96;68.81;100079.72;8360130;28;20057;-58
2023/07/21 11:07:01;;;;;;;8.95;5.50;;;;;;;22.89;67.27;100073.47;8349264;28;20043;-58
2023/07/21 11:11:01;;;;;;;8.73;6.53;;;;;;;23.08;67.31;100077.88;8356651;28;20406;-58
2023/07/21 11:15:03;;;;;;;23.67;8.18;;;;;;;23.07;66.90;100059.66;8354775;28;20266;-58
2023/07/21 11:19:04;;;;;;;6.55;4.82;;;;;;;23.14;66.66;100065.91;8356760;28;20045;-58
2023/07/21 11:23:04;;;;;;;6.63;5.32;;;;;;;23.10;65.71;100070.22;8352799;28;20116;-58
2023/07/21 11:27:07;;;;;;;9.60;4.38;;;;;;;23.17;65.62;100076.50;8355225;28;20120;-59
2023/07/21 11:31:12;;;;;;;9.65;4.65;;;;;;;23.09;64.66;100074.03;8355387;28;20120;-61
2023/07/21 11:35:13;;;;;;;34.83;5.72;;;;;;;23.15;65.32;100052.97;8355235;28;20063;-60
2023/07/21 11:39:19;;;;;;;9.15;4.25;;;;;;;23.47;63.71;100059.97;8336455;28;20041;-61
2023/07/21 11:43:19;;;;;;;5.78;3.65;;;;;;;24.82;60.57;100054.19;8343738;28;20563;-60
2023/07/21 11:47:20;;;;;;;5.13;4.03;;;;;;;25.17;59.52;100052.19;8344740;28;20462;-60
2023/07/21 11:51:22;;;;;;;11.88;3.90;;;;;;;27.33;55.11;100047.38;8345561;28;20037;-60
2023/07/21 11:55:23;;;;;;;5.32;2.97;;;;;;;27.88;51.00;100047.97;8340709;28;20052;-60
2023/07/21 11:59:24;;;;;;;3.88;2.28;;;;;;;26.65;53.92;100045.09;8345216;28;20787;-60
2023/07/21 12:03:26;;;;;;;2.72;2.03;;;;;;;27.94;50.20;100044.13;8349350;28;20041;-60
2023/07/21 12:07:26;;;;;;;6.22;2.50;;;;;;;30.07;47.78;100041.75;8346116;28;20422;-61
2023/07/21 12:11:27;;;;;;;8.15;2.58;;;;;;;29.51;47.27;100045.59;8347302;28;20036;-62
2023/07/21 12:15:29;;;;;;;2.70;2.28;;;;;;;27.86;50.93;100047.38;8342522;28;20099;-60
2023/07/21 12:19:29;;;;;;;11.02;2.15;;;;;;;26.99;50.54;100035.56;8352016;28;20447;-60
2023/07/21 12:23:30;;;;;;;4.00;1.53;;;;;;;26.87;50.40;100047.91;8347457;28;20340;-60
2023/07/21 12:27:30;;;;;;;2.33;1.42;;;;;;;26.50;52.40;100042.91;8344730;28;20860;-60
2023/07/21 12:31:31;;;;;;;6.55;1.73;;;;;;;26.15;52.06;100039.63;8346584;28;20491;-60
2023/07/21 12:35:31;;;;;;;5.18;0.95;;;;;;;26.24;50.05;100038.09;8345380;28;20063;-60
2023/07/21 12:39:32;;;;;;;2.15;0.70;;;;;;;25.72;50.61;100044.09;8346744;28;20109;-60
2023/07/21 12:43:32;;;;;;;6.35;1.45;;;;;;;25.18;50.96;100042.78;8343157;28;20048;-61
2023/07/21 12:47:34;;;;;;;1.58;0.90;;;;;;;25.43;51.69;100040.53;8343620;28;20052;-59
2023/07/21 12:51:35;;;;;;;1.48;0.80;;;;;;;25.62;50.61;100024.56;8345017;28;20708;-59
2023/07/21 12:55:35;;;;;;;1.90;0.82;;;;;;;25.97;50.04;100034.31;8345671;28;20128;-59
2023/07/21 12:59:36;;;;;;;5.05;1.23;;;;;;;25.15;51.72;100031.38;8341843;28;20571;-59
2023/07/21 13:03:36;;;;;;;2.33;1.08;;;;;;;25.07;52.08;100027.09;8346181;28;20099;-59
2023/07/21 13:07:39;;;;;;;12.35;1.45;;;;;;;24.72;51.95;100032.72;8347006;28;20124;-59
2023/07/21 13:11:39;;;;;;;6.07;1.13;;;;;;;24.54;51.88;100051.34;8346836;28;20037;-59
2023/07/21 13:15:40;;;;;;;29.42;3.63;;;;;;;23.97;57.20;100060.47;8340884;28;20041;-59
2023/07/21 13:19:40;;;;;;;38.08;3.50;;;;;;;23.44;61.17;100065.94;8344007;28;20126;-59
2023/07/21 13:23:41;;;;;;;23.17;3.50;;;;;;;23.53;62.43;100069.22;8344728;28;20519;-59
2023/07/21 13:27:41;;;;;;;15.63;3.20;;;;;;;23.54;61.71;100082.78;8343900;28;20036;-59
2023/07/21 13:31:42;;;;;;;12.77;2.10;;;;;;;22.86;62.58;100095.97;8341742;28;20099;-59
2023/07/21 13:35:42;;;;;;;14.13;2.47;;;;;;;22.53;62.90;100100.16;8339125;28;20047;-60
2023/07/21 13:39:43;;;;;;;9.85;2.22;;;;;;;22.21;63.34;100099.41;8341396;28;20064;-59
2023/07/21 13:43:43;;;;;;;12.90;1.40;;;;;;;22.15;63.51;100113.22;8351015;28;20045;-59
2023/07/21 13:47:44;;;;;;;9.07;1.30;;;;;;;21.82;63.08;100121.75;8349931;28;20046;-59
2023/07/21 13:51:45;;;;;;;7.05;1.60;;;;;;;21.34;65.30;100115.03;8350198;28;20044;-59
2023/07/21 13:55:46;;;;;;;4.82;1.20;;;;;;;21.14;66.88;100108.78;8351349;28;20036;-59
2023/07/21 13:59:47;;;;;;;7.97;1.65;;;;;;;21.11;65.77;100110.03;8341750;28;20045;-60
2023/07/21 14:03:47;;;;;;;1.30;1.20;;;;;;;20.91;66.17;100113.91;8352707;28;20404;-60
2023/07/21 14:07:49;;;;;;;1.88;1.30;;;;;;;20.74;66.15;100123.72;8347343;28;20055;-60
2023/07/21 14:11:50;;;;;;;2.80;1.30;;;;;;;20.47;68.53;100122.94;8353263;28;20071;-59
2023/07/21 14:15:50;;;;;;;4.05;1.65;;;;;;;20.42;68.56;100130.09;8349794;28;20037;-59
2023/07/21 14:19:51;;;;;;;4.03;1.60;;;;;;;20.48;68.87;100134.75;8344758;28;20473;-59
2023/07/21 14:23:52;;;;;;;9.68;2.20;;;;;;;20.41;70.96;100139.41;8359518;28;20043;-59
2023/07/21 14:27:52;;;;;;;3.05;1.42;;;;;;;20.33;72.09;100145.09;8347529;28;20114;-59
2023/07/21 14:31:53;;;;;;;5.03;1.58;;;;;;;20.07;73.93;100151.41;8347944;28;20103;-60
2023/07/21 14:35:53;;;;;;;4.95;2.00;;;;;;;19.93;74.11;100151.59;8354668;28;20044;-59
2023/07/21 14:39:54;;;;;;;7.35;2.05;;;;;;;19.90;75.21;100158.38;8350355;28;20045;-59
2023/07/21 14:43:54;;;;;;;3.83;1.77;;;;;;;20.04;75.17;100151.00;8351537;28;20061;-59
2023/07/21 14:47:55;;;;;;;2.97;1.42;;;;;;;20.06;74.53;100159.88;8345910;28;20045;-59
2023/07/21 14:51:58;;;;;;;2.20;1.60;;;;;;;19.96;74.73;100159.44;8352498;28;20041;-59
2023/07/21 14:55:59;;;;;;;2.20;1.65;;;;;;;19.99;73.12;100173.59;8348278;28;20092;-59
2023/07/21 14:59:59;;;;;;;4.78;1.77;;;;;;;19.92;72.96;100166.41;8350612;28;20060;-59
2023/07/21 15:03:59;;;;;;;4.32;1.77;;;;;;;19.80;73.71;100173.53;8353537;28;20082;-60
2023/07/21 15:08:00;;;;;;;2.80;1.73;;;;;;;19.78;73.95;100170.16;8357005;28;20051;-61
2023/07/21 15:12:00;;;;;;;3.13;2.00;;;;;;;19.88;74.38;100165.97;8358454;28;20041;-59
2023/07/21 15:16:01;;;;;;;1.88;1.40;;;;;;;19.95;73.60;100182.44;8356689;28;20052;-60
2023/07/21 15:20:07;;;;;;;5.90;1.38;;;;;;;20.11;72.67;100182.88;8352699;28;20045;-60
2023/07/21 15:24:08;;;;;;;2.92;1.60;;;;;;;20.53;70.30;100188.00;8347287;28;20049;-60
2023/07/21 15:28:08;;;;;;;3.42;1.70;;;;;;;20.90;68.41;100194.69;8349933;28;20132;-60
2023/07/21 15:32:09;;;;;;;4.18;1.48;;;;;;;21.07;67.68;100184.94;8354824;28;20041;-62
2023/07/21 15:36:09;;;;;;;1.67;1.15;;;;;;;21.08;67.07;100181.16;8347776;28;20310;-60
2023/07/21 15:40:11;;;;;;;2.40;1.63;;;;;;;21.04;68.10;100185.38;8356293;28;20045;-60
2023/07/21 15:44:12;;;;;;;3.13;1.23;;;;;;;21.21;66.70;100189.34;8353757;28;20124;-60
2023/07/21 15:48:13;;;;;;;1.85;1.08;;;;;;;21.35;65.66;100188.25;8347165;28;20040;-60
2023/07/21 15:52:13;;;;;;;2.60;1.45;;;;;;;21.63;65.46;100185.13;8356610;28;20032;-60
2023/07/21 15:56:13;;;;;;;1.50;1.38;;;;;;;21.95;63.70;100178.59;8364728;28;20095;-61
2023/07/21 16:00:15;;;;;;;7.03;1.25;;;;;;;21.89;63.24;100191.34;8367884;28;20127;-60
2023/07/21 16:04:17;;;;;;;1.77;1.30;;;;;;;21.62;63.25;100189.78;8352085;28;20040;-60
2023/07/21 16:08:17;;;;;;;5.80;2.20;;;;;;;21.60;63.31;100191.91;8352225;28;20249;-59
2023/07/21 16:12:18;;;;;;;2.20;1.50;;;;;;;21.62;64.23;100183.44;8352650;28;20633;-60
2023/07/21 16:16:20;;;;;;;2.58;1.20;;;;;;;21.75;63.95;100197.16;8350790;28;20586;-60
2023/07/21 16:20:21;;;;;;;4.18;1.38;;;;;;;21.88;65.27;100189.66;8353682;28;20128;-59
2023/07/21 16:24:21;;;;;;;2.15;1.23;;;;;;;22.02;63.59;100199.50;8353382;28;20072;-59
2023/07/21 16:28:22;;;;;;;1.88;1.50;;;;;;;22.39;63.21;100201.38;8352409;28;20037;-60
2023/07/21 16:32:22;;;;;;;3.03;2.20;;;;;;;22.18;64.46;100204.50;8348342;28;20051;-60
2023/07/21 16:36:23;;;;;;;2.33;1.50;;;;;;;22.27;65.82;100199.56;8347974;28;20040;-62
2023/07/21 16:40:23;;;;;;;4.68;2.50;;;;;;;22.29;65.69;100203.78;8358981;28;20063;-59
2023/07/21 16:44:23;;;;;;;4.60;2.47;;;;;;;22.05;66.37;100201.81;8359766;28;20421;-59
2023/07/21 16:48:26;;;;;;;5.72;2.70;;;;;;;22.04;67.20;100208.41;8346863;28;20041;-60
2023/07/21 16:52:27;;;;;;;3.10;2.17;;;;;;;21.99;66.49;100212.91;8351283;28;20124;-60
2023/07/21 16:56:27;;;;;;;3.85;2.65;;;;;;;21.87;66.16;100210.00;8351440;28;20033;-59
2023/07/21 17:00:28;;;;;;;4.72;3.30;;;;;;;21.70;67.99;100205.19;8351934;28;20060;-60
2023/07/21 17:04:31;;;;;;;4.55;2.50;;;;;;;21.72;68.42;100212.19;8347756;28;20049;-60
2023/07/21 17:08:32;;;;;;;3.83;3.17;;;;;;;21.54;67.24;100212.06;8352813;28;20534;-61
2023/07/21 17:12:32;;;;;;;6.05;3.42;;;;;;;21.30;67.00;100221.03;8355093;28;20468;-61
2023/07/21 17:16:33;;;;;;;4.72;3.22;;;;;;;21.21;67.67;100219.59;8351960;28;20392;-63
2023/07/21 17:20:33;;;;;;;5.13;3.08;;;;;;;21.30;67.93;100216.41;8353150;28;20167;-61
2023/07/21 17:24:34;;;;;;;3.30;2.70;;;;;;;21.35;68.88;100221.25;8351096;28;20037;-61
2023/07/21 17:28:35;;;;;;;5.50;3.17;;;;;;;21.22;68.00;100213.88;8348450;28;20043;-61
2023/07/21 17:32:36;;;;;;;4.53;3.72;;;;;;;21.14;68.21;100225.09;8352051;28;20040;-61
2023/07/21 17:36:36;;;;;;;4.75;3.13;;;;;;;21.16;68.94;100227.63;8351297;28;20478;-61
2023/07/21 17:40:36;;;;;;;4.85;3.38;;;;;;;21.40;67.44;100229.66;8351527;28;20518;-61
2023/07/21 17:44:37;;;;;;;7.30;3.25;;;;;;;21.56;67.46;100237.44;8351271;28;20498;-61
2023/07/21 17:48:37;;;;;;;7.60;3.47;;;;;;;21.68;66.66;100243.94;8352275;28;20033;-61
2023/07/21 17:52:39;;;;;;;8.07;3.65;;;;;;;21.48;66.19;100240.44;8351645;28;20037;-61
2023/07/21 17:56:39;;;;;;;5.97;3.40;;;;;;;21.54;67.06;100247.81;8351446;28;20655;-61
2023/07/21 18:00:40;;;;;;;4.65;3.53;;;;;;;21.35;67.39;100244.06;8349125;28;20079;-62
2023/07/21 18:04:40;;;;;;;5.85;3.47;;;;;;;21.11;67.66;100246.69;8351860;28;20118;-59
2023/07/21 18:08:41;;;;;;;7.90;3.95;;;;;;;20.98;68.16;100246.72;8351817;28;20036;-59
2023/07/21 18:12:41;;;;;;;7.40;4.28;;;;;;;20.92;68.75;100250.31;8353014;28;20084;-59
2023/07/21 18:16:42;;;;;;;7.53;4.63;;;;;;;21.08;67.77;100249.88;8347640;28;20147;-59
2023/07/21 18:20:42;;;;;;;7.88;4.30;;;;;;;21.21;68.45;100252.59;8350597;28;20452;-60
2023/07/21 18:24:43;;;;;;;5.60;3.83;;;;;;;21.07;68.54;100248.16;8349558;28;20045;-59
2023/07/21 18:28:43;;;;;;;8.25;4.03;;;;;;;20.91;68.44;100248.59;8351704;28;20301;-60